createdAt,value
2017-09-02T00:01:17.763Z,100174.09
2017-09-02T00:03:43.827Z,100174.35
2017-09-02T00:06:09.886Z,100167.67
2017-09-02T00:08:36.014Z,100166.23
2017-09-02T00:11:02.086Z,100159.03
2017-09-02T00:13:28.183Z,100162.80
2017-09-02T00:15:54.320Z,100154.58
2017-09-02T00:18:20.464Z,100159.41
2017-09-02T00:20:46.537Z,100152.88
2017-09-02T00:23:12.638Z,100158.37
2017-09-02T00:25:38.822Z,100152.19
2017-09-02T00:28:04.927Z,100158.81
2017-09-02T00:30:31.018Z,100155.89
2017-09-02T00:32:57.180Z,100148.13
2017-09-02T00:35:23.299Z,100155.08
2017-09-02T00:37:49.388Z,100148.83
2017-09-02T00:40:15.486Z,100151.20
2017-09-02T00:42:41.572Z,100157.18
2017-09-02T00:45:07.660Z,100156.66
2017-09-02T00:47:33.788Z,100155.26
2017-09-02T00:49:59.874Z,100147.21
2017-09-02T00:52:25.986Z,100150.98
2017-09-02T00:54:52.120Z,100153.16
2017-09-02T00:57:18.199Z,100155.59
2017-09-02T00:59:44.332Z,100149.64
2017-09-02T01:02:10.468Z,100152.74
2017-09-02T01:04:36.582Z,100150.25
2017-09-02T01:07:02.664Z,100155.77
2017-09-02T01:09:28.768Z,100159.03
2017-09-02T01:11:54.890Z,100159.69
2017-09-02T01:14:20.994Z,100163.63
2017-09-02T01:16:47.170Z,100158.27
2017-09-02T01:19:13.268Z,100159.19
2017-09-02T01:21:39.380Z,100159.03
2017-09-02T01:24:05.488Z,100159.72
2017-09-02T01:26:31.562Z,100159.53
2017-09-02T01:28:57.630Z,100162.30
2017-09-02T01:31:23.751Z,100154.08
2017-09-02T01:33:49.824Z,100160.70
2017-09-02T01:36:15.950Z,100156.95
2017-09-02T01:38:42.066Z,100154.83
2017-09-02T01:41:08.139Z,100154.44
2017-09-02T01:43:34.230Z,100150.37
2017-09-02T01:46:00.320Z,100151.98
2017-09-02T01:48:26.385Z,100146.47
2017-09-02T01:50:52.474Z,100156.77
2017-09-02T01:53:18.531Z,100157.61
2017-09-02T01:55:44.640Z,100149.99
2017-09-02T01:58:10.714Z,100151.41
2017-09-02T02:00:36.762Z,100147.12
2017-09-02T02:03:02.846Z,100140.76
2017-09-02T02:05:28.907Z,100136.50
2017-09-02T02:07:54.963Z,100132.98
2017-09-02T02:10:21.101Z,100129.80
2017-09-02T02:12:47.206Z,100138.58
2017-09-02T02:15:13.285Z,100127.92
2017-09-02T02:17:39.385Z,100134.81
2017-09-02T02:20:05.479Z,100139.50
2017-09-02T02:22:31.569Z,100128.03
2017-09-02T02:24:57.641Z,100129.88
2017-09-02T02:27:23.740Z,100132.06
2017-09-02T02:29:49.809Z,100130.64
2017-09-02T02:32:15.975Z,100129.03
2017-09-02T02:34:42.066Z,100125.45
2017-09-02T02:37:08.145Z,100127.87
2017-09-02T02:39:34.293Z,100126.02
2017-09-02T02:42:00.377Z,100131.31
2017-09-02T02:44:26.509Z,100127.11
2017-09-02T02:46:52.599Z,100127.34
2017-09-02T02:49:18.693Z,100129.25
2017-09-02T02:51:44.835Z,100130.16
2017-09-02T02:54:10.909Z,100130.35
2017-09-02T02:56:37.011Z,100131.01
2017-09-02T02:59:03.160Z,100129.92
2017-09-02T03:01:29.289Z,100132.00
2017-09-02T03:03:55.401Z,100126.42
2017-09-02T03:06:21.517Z,100135.16
2017-09-02T03:08:47.591Z,100130.93
2017-09-02T03:11:13.689Z,100138.09
2017-09-02T03:13:39.814Z,100136.28
2017-09-02T03:16:05.932Z,100137.02
2017-09-02T03:18:32.000Z,100140.66
2017-09-02T03:20:58.087Z,100135.07
2017-09-02T03:23:24.171Z,100130.61
2017-09-02T03:25:50.351Z,100118.19
2017-09-02T03:28:16.457Z,100112.95
2017-09-02T03:30:42.531Z,100112.83
2017-09-02T03:33:08.646Z,100111.37
2017-09-02T03:35:34.765Z,100122.39
2017-09-02T03:38:00.859Z,100114.72
2017-09-02T03:40:26.975Z,100118.20
2017-09-02T03:42:53.041Z,100119.27
2017-09-02T03:45:19.125Z,100110.31
2017-09-02T03:47:45.183Z,100112.70
2017-09-02T03:50:11.271Z,100114.95
2017-09-02T03:52:37.402Z,100118.44
2017-09-02T03:55:03.497Z,100112.32
2017-09-02T03:57:29.587Z,100112.50
2017-09-02T03:59:55.680Z,100120.62
2017-09-02T04:02:21.805Z,100113.48
2017-09-02T04:04:47.910Z,100110.28
2017-09-02T04:07:13.987Z,100109.13
2017-09-02T04:09:40.115Z,100106.09
2017-09-02T04:12:06.242Z,100109.78
2017-09-02T04:14:32.367Z,100103.42
2017-09-02T04:16:58.491Z,100104.09
2017-09-02T04:19:25.409Z,100106.84
2017-09-02T04:21:51.512Z,100105.74
2017-09-02T04:24:17.586Z,100114.52
2017-09-02T04:26:43.699Z,100117.86
2017-09-02T04:29:09.771Z,100119.84
2017-09-02T04:31:35.915Z,100119.70
2017-09-02T04:34:02.006Z,100112.61
2017-09-02T04:36:28.096Z,100120.77
2017-09-02T04:38:54.178Z,100118.23
2017-09-02T04:41:20.354Z,100121.61
2017-09-02T04:43:46.447Z,100118.75
2017-09-02T04:46:12.539Z,100124.87
2017-09-02T04:48:38.634Z,100122.95
2017-09-02T04:51:04.747Z,100120.56
2017-09-02T04:53:30.870Z,100118.36
2017-09-02T04:55:57.000Z,100112.15
2017-09-02T04:58:23.120Z,100122.20
2017-09-02T05:00:49.217Z,100118.67
2017-09-02T05:03:15.303Z,100119.99
2017-09-02T05:05:41.433Z,100116.00
2017-09-02T05:08:07.512Z,100122.96
2017-09-02T05:10:33.606Z,100122.80
2017-09-02T05:12:59.951Z,100124.55
2017-09-02T05:15:26.065Z,100120.41
2017-09-02T05:17:52.159Z,100130.02
2017-09-02T05:20:18.256Z,100125.09
2017-09-02T05:22:44.367Z,100128.27
2017-09-02T05:25:10.450Z,100115.50
2017-09-02T05:27:36.515Z,100115.66
2017-09-02T05:30:02.614Z,100118.06
2017-09-02T05:32:28.759Z,100128.95
2017-09-02T05:34:54.847Z,100122.59
2017-09-02T05:37:20.983Z,100119.16
2017-09-02T05:39:47.125Z,100117.58
2017-09-02T05:42:13.263Z,100116.73
2017-09-02T05:44:39.370Z,100117.89
2017-09-02T05:47:05.465Z,100119.84
2017-09-02T05:49:32.088Z,100123.59
2017-09-02T05:51:58.213Z,100124.86
2017-09-02T05:54:24.332Z,100131.72
2017-09-02T05:56:50.435Z,100126.51
2017-09-02T05:59:16.552Z,100123.55
2017-09-02T06:01:42.688Z,100118.25
2017-09-02T06:04:08.756Z,100120.09
2017-09-02T06:06:34.823Z,100120.36
2017-09-02T06:09:00.950Z,100128.04
2017-09-02T06:11:27.052Z,100131.83
2017-09-02T06:13:53.178Z,100124.38
2017-09-02T06:16:19.276Z,100114.72
2017-09-02T06:18:45.392Z,100111.41
2017-09-02T06:21:11.510Z,100110.75
2017-09-02T06:23:37.681Z,100117.41
2017-09-02T06:26:03.740Z,100113.86
2017-09-02T06:28:29.873Z,100116.30
2017-09-02T06:30:55.995Z,100117.84
2017-09-02T06:33:22.065Z,100116.65
2017-09-02T06:35:48.145Z,100111.31
2017-09-02T06:38:14.240Z,100119.63
2017-09-02T06:40:40.323Z,100116.13
2017-09-02T06:43:06.436Z,100118.36
2017-09-02T06:45:32.657Z,100119.16
2017-09-02T06:47:59.066Z,100117.60
2017-09-02T06:50:25.504Z,100123.70
2017-09-02T06:52:51.648Z,100123.08
2017-09-02T06:55:17.740Z,100120.94
2017-09-02T06:57:43.908Z,100124.20
2017-09-02T07:00:10.064Z,100126.38
2017-09-02T07:02:36.148Z,100125.34
2017-09-02T07:05:02.258Z,100130.59
2017-09-02T07:07:28.407Z,100129.05
2017-09-02T07:09:54.492Z,100127.66
2017-09-02T07:12:20.658Z,100129.39
2017-09-02T07:14:46.744Z,100121.85
2017-09-02T07:17:12.866Z,100126.93
2017-09-02T07:19:38.976Z,100128.71
2017-09-02T07:22:05.128Z,100139.14
2017-09-02T07:24:31.419Z,100143.40
2017-09-02T07:26:57.548Z,100141.17
2017-09-02T07:29:23.646Z,100140.20
2017-09-02T07:31:49.739Z,100144.58
2017-09-02T07:34:16.106Z,100141.28
2017-09-02T07:36:42.177Z,100140.11
2017-09-02T07:39:08.290Z,100144.06
2017-09-02T07:41:34.530Z,100148.01
2017-09-02T07:44:00.798Z,100140.27
2017-09-02T07:46:33.795Z,100145.20
2017-09-02T07:49:00.659Z,100141.41
2017-09-02T07:51:26.836Z,100147.59
2017-09-02T07:53:52.975Z,100140.36
2017-09-02T07:56:19.103Z,100150.77
2017-09-02T07:58:45.220Z,100147.87
2017-09-02T08:01:11.380Z,100147.72
2017-09-02T08:03:37.541Z,100140.72
2017-09-02T08:06:03.639Z,100144.71
2017-09-02T08:08:29.752Z,100141.77
2017-09-02T08:10:55.898Z,100143.62
2017-09-02T08:13:22.048Z,100144.19
2017-09-02T08:15:48.128Z,100143.70
2017-09-02T08:18:14.220Z,100149.94
2017-09-02T08:20:40.389Z,100146.39
2017-09-02T08:23:06.489Z,100148.85
2017-09-02T08:25:32.581Z,100151.38
2017-09-02T08:27:58.697Z,100147.59
2017-09-02T08:30:24.869Z,100145.96
2017-09-02T08:32:50.988Z,100137.89
2017-09-02T08:35:17.085Z,100133.27
2017-09-02T08:37:43.185Z,100139.46
2017-09-02T08:40:09.310Z,100140.92
2017-09-02T08:42:36.522Z,100136.77
2017-09-02T08:45:02.680Z,100135.83
2017-09-02T08:47:28.743Z,100138.16
2017-09-02T08:49:54.898Z,100146.60
2017-09-02T08:52:20.973Z,100145.87
2017-09-02T08:54:47.062Z,100148.77
2017-09-02T08:57:13.210Z,100146.63
2017-09-02T08:59:39.312Z,100141.44
2017-09-02T09:02:05.398Z,100139.27
2017-09-02T09:04:31.487Z,100147.11
2017-09-02T09:06:57.614Z,100139.08
2017-09-02T09:09:23.766Z,100138.31
2017-09-02T09:11:49.856Z,100142.27
2017-09-02T09:14:15.991Z,100136.48
2017-09-02T09:16:42.112Z,100141.05
2017-09-02T09:19:08.213Z,100135.63
2017-09-02T09:21:34.384Z,100137.76
2017-09-02T09:24:00.504Z,100134.86
2017-09-02T09:26:26.662Z,100131.39
2017-09-02T09:28:52.774Z,100144.80
2017-09-02T09:31:18.892Z,100137.69
2017-09-02T09:33:45.089Z,100140.94
2017-09-02T09:36:11.242Z,100137.59
2017-09-02T09:38:37.541Z,100136.48
2017-09-02T09:41:03.987Z,100132.16
2017-09-02T09:43:30.138Z,100124.70
2017-09-02T09:45:56.369Z,100124.52
2017-09-02T09:48:22.476Z,100125.67
2017-09-02T09:50:48.613Z,100132.30
2017-09-02T09:53:14.873Z,100137.27
2017-09-02T09:55:41.203Z,100131.34
2017-09-02T09:58:07.417Z,100136.62
2017-09-02T10:00:33.709Z,100142.48
2017-09-02T10:03:00.051Z,100129.41
2017-09-02T10:05:26.337Z,100133.64
2017-09-02T10:07:52.537Z,100133.84
2017-09-02T10:10:18.804Z,100130.92
2017-09-02T10:12:44.957Z,100129.19
2017-09-02T10:15:11.220Z,100117.42
2017-09-02T10:17:37.451Z,100109.97
2017-09-02T10:20:03.585Z,100112.85
2017-09-02T10:22:29.732Z,100110.73
2017-09-02T10:24:55.887Z,100118.19
2017-09-02T10:27:22.189Z,100101.77
2017-09-02T10:29:48.384Z,100104.49
2017-09-02T10:32:14.577Z,100098.70
2017-09-02T10:34:40.842Z,100101.56
2017-09-02T10:37:07.093Z,100108.54
2017-09-02T10:39:33.389Z,100107.52
2017-09-02T10:41:59.524Z,100091.36
2017-09-02T10:44:25.897Z,100096.66
2017-09-02T10:46:52.011Z,100095.63
2017-09-02T10:49:18.187Z,100095.81
2017-09-02T10:51:44.423Z,100091.05
2017-09-02T10:54:10.557Z,100097.05
2017-09-02T10:56:36.692Z,100088.87
2017-09-02T10:59:02.845Z,100082.47
2017-09-02T11:01:28.993Z,100081.02
2017-09-02T11:03:55.255Z,100083.38
2017-09-02T11:06:21.381Z,100083.73
2017-09-02T11:08:47.524Z,100086.27
2017-09-02T11:11:13.681Z,100077.80
2017-09-02T11:13:39.819Z,100078.47
2017-09-02T11:16:05.918Z,100081.90
2017-09-02T11:18:32.113Z,100075.31
2017-09-02T11:20:58.211Z,100074.80
2017-09-02T11:23:24.362Z,100077.55
2017-09-02T11:25:51.453Z,100071.98
2017-09-02T11:28:17.562Z,100082.20
2017-09-02T11:30:43.654Z,100073.07
2017-09-02T11:33:09.989Z,100077.09
2017-09-02T11:35:36.060Z,100080.21
2017-09-02T11:38:02.206Z,100074.22
2017-09-02T11:40:28.354Z,100072.09
2017-09-02T11:42:54.498Z,100076.28
2017-09-02T11:45:20.648Z,100070.17
2017-09-02T11:47:46.799Z,100084.37
2017-09-02T11:50:12.908Z,100074.39
2017-09-02T11:52:39.046Z,100078.63
2017-09-02T11:55:05.262Z,100073.70
2017-09-02T11:57:31.402Z,100071.36
2017-09-02T11:59:57.561Z,100070.68
2017-09-02T12:02:23.678Z,100063.41
2017-09-02T12:04:49.802Z,100060.77
2017-09-02T12:07:15.952Z,100061.32
2017-09-02T12:09:42.118Z,100060.64
2017-09-02T12:12:08.227Z,100057.27
2017-09-02T12:14:34.437Z,100068.36
2017-09-02T12:17:00.826Z,100064.13
2017-09-02T12:19:26.954Z,100062.50
2017-09-02T12:21:53.198Z,100049.95
2017-09-02T12:24:19.334Z,100054.88
2017-09-02T12:26:45.435Z,100057.87
2017-09-02T12:29:11.760Z,100053.95
2017-09-02T12:31:37.880Z,100051.72
2017-09-02T12:34:04.079Z,100045.02
2017-09-02T12:36:30.184Z,100045.09
2017-09-02T12:38:56.338Z,100041.91
2017-09-02T12:41:22.459Z,100045.16
2017-09-02T12:43:48.662Z,100040.23
2017-09-02T12:46:14.804Z,100039.17
2017-09-02T12:48:40.949Z,100042.30
2017-09-02T12:51:07.419Z,100041.27
2017-09-02T12:53:33.609Z,100033.45
2017-09-02T12:55:59.696Z,100029.12
2017-09-02T12:58:25.984Z,100033.47
2017-09-02T13:00:52.107Z,100030.39
2017-09-02T13:03:18.331Z,100029.83
2017-09-02T13:05:44.571Z,100018.33
2017-09-02T13:08:10.703Z,100024.03
2017-09-02T13:10:36.811Z,100024.31
2017-09-02T13:13:02.970Z,100017.89
2017-09-02T13:15:29.121Z,100018.78
2017-09-02T13:17:55.223Z,100017.55
2017-09-02T13:20:21.362Z,100019.73
2017-09-02T13:22:47.481Z,100012.67
2017-09-02T13:25:13.615Z,100010.06
2017-09-02T13:27:39.837Z,100013.16
2017-09-02T13:30:05.937Z,100010.00
2017-09-02T13:32:32.057Z,100009.20
2017-09-02T13:34:58.209Z,100009.33
2017-09-02T13:37:24.362Z,100005.42
2017-09-02T13:39:50.510Z,100010.86
2017-09-02T13:42:16.738Z,100009.72
2017-09-02T13:44:42.831Z,100006.61
2017-09-02T13:47:08.917Z,100014.14
2017-09-02T13:49:35.029Z,100013.28
2017-09-02T13:52:01.146Z,100005.42
2017-09-02T13:54:27.281Z,100012.08
2017-09-02T13:56:53.465Z,100000.94
2017-09-02T13:59:19.584Z,100006.09
2017-09-02T14:01:45.728Z,100005.88
2017-09-02T14:04:11.873Z,100001.47
2017-09-02T14:06:38.051Z,100006.40
2017-09-02T14:09:04.164Z,99997.27
2017-09-02T14:11:30.359Z,99999.45
2017-09-02T14:13:56.487Z,100009.04
2017-09-02T14:16:22.601Z,100006.15
2017-09-02T14:18:49.080Z,100005.83
2017-09-02T14:21:15.183Z,100007.64
2017-09-02T14:23:41.307Z,99998.09
2017-09-02T14:26:07.447Z,99996.88
2017-09-02T14:28:33.639Z,100007.01
2017-09-02T14:30:59.932Z,100008.01
2017-09-02T14:33:26.118Z,100005.84
2017-09-02T14:35:52.282Z,99999.84
2017-09-02T14:38:19.428Z,99999.05
2017-09-02T14:40:45.571Z,99996.16
2017-09-02T14:43:12.609Z,100000.95
2017-09-02T14:45:38.770Z,99993.31
2017-09-02T14:48:04.940Z,99991.34
2017-09-02T14:50:31.372Z,100004.92
2017-09-02T14:52:57.959Z,99989.88
2017-09-02T14:55:24.103Z,99994.81
2017-09-02T14:57:50.200Z,99992.98
2017-09-02T15:00:16.356Z,99989.36
2017-09-02T15:02:42.498Z,99992.02
2017-09-02T15:05:08.598Z,99996.11
2017-09-02T15:07:34.722Z,99990.09
2017-09-02T15:10:00.878Z,99992.47
2017-09-02T15:12:28.126Z,99991.23
2017-09-02T15:14:54.308Z,99983.56
2017-09-02T15:17:20.410Z,99985.61
2017-09-02T15:19:46.526Z,99986.95
2017-09-02T15:22:12.684Z,99982.95
2017-09-02T15:24:38.836Z,99987.59
2017-09-02T15:27:05.594Z,99988.52
2017-09-02T15:29:31.786Z,99980.17
2017-09-02T15:31:57.883Z,99982.58
2017-09-02T15:34:23.995Z,99978.77
2017-09-02T15:36:50.110Z,99981.48
2017-09-02T15:39:16.255Z,99970.38
2017-09-02T15:41:42.371Z,99984.22
2017-09-02T15:44:08.445Z,99982.28
2017-09-02T15:46:34.597Z,99986.56
2017-09-02T15:49:00.711Z,99981.34
2017-09-02T15:51:26.828Z,99981.97
2017-09-02T15:53:52.948Z,99988.55
2017-09-02T15:56:19.060Z,99981.83
2017-09-02T15:58:45.185Z,99984.63
2017-09-02T16:01:11.378Z,99982.25
2017-09-02T16:03:37.557Z,99983.09
2017-09-02T16:06:03.735Z,99974.63
2017-09-02T16:08:29.868Z,99985.96
2017-09-02T16:10:56.105Z,99984.52
2017-09-02T16:13:22.334Z,99982.45
2017-09-02T16:15:48.520Z,99985.17
2017-09-02T16:18:14.757Z,99986.84
2017-09-02T16:20:40.850Z,99984.84
2017-09-02T16:23:06.927Z,99984.61
2017-09-02T16:25:34.887Z,99989.78
2017-09-02T16:28:08.727Z,99991.98
2017-09-02T16:30:34.887Z,99994.06
2017-09-02T16:33:01.028Z,99990.62
2017-09-02T16:35:27.127Z,99995.09
2017-09-02T16:37:53.234Z,99997.52
2017-09-02T16:40:19.376Z,99999.63
2017-09-02T16:42:45.508Z,99999.17
2017-09-02T16:45:11.640Z,99996.02
2017-09-02T16:47:37.825Z,99994.80
2017-09-02T16:50:04.073Z,100002.71
2017-09-02T16:52:30.182Z,99999.30
2017-09-02T16:54:56.373Z,99993.28
2017-09-02T16:57:22.544Z,100005.00
2017-09-02T16:59:48.624Z,100004.45
2017-09-02T17:02:14.891Z,100003.34
2017-09-02T17:04:41.137Z,100003.63
2017-09-02T17:07:07.256Z,99999.11
2017-09-02T17:09:33.485Z,100001.75
2017-09-02T17:11:59.600Z,99998.59
2017-09-02T17:14:25.726Z,99997.11
2017-09-02T17:16:51.831Z,99993.70
2017-09-02T17:19:17.942Z,99994.70
2017-09-02T17:21:44.085Z,99992.78
2017-09-02T17:24:10.249Z,100001.93
2017-09-02T17:26:36.341Z,99999.61
2017-09-02T17:29:02.752Z,100001.12
2017-09-02T17:31:28.890Z,100006.22
2017-09-02T17:33:55.124Z,100006.73
2017-09-02T17:36:21.306Z,100007.48
2017-09-02T17:38:47.409Z,100009.84
2017-09-02T17:41:13.531Z,100009.86
2017-09-02T17:43:39.658Z,100003.98
2017-09-02T17:46:05.957Z,100007.70
2017-09-02T17:48:32.116Z,100009.59
2017-09-02T17:50:59.353Z,100011.85
2017-09-02T17:53:26.111Z,100004.92
2017-09-02T17:55:52.379Z,100009.87
2017-09-02T17:58:18.504Z,100011.53
2017-09-02T18:00:44.705Z,100012.39
2017-09-02T18:03:10.896Z,100011.50
2017-09-02T18:05:37.081Z,100009.52
2017-09-02T18:08:03.231Z,100008.39
2017-09-02T18:10:29.335Z,100010.36
2017-09-02T18:12:55.465Z,100010.81
2017-09-02T18:15:21.621Z,100010.40
2017-09-02T18:17:47.742Z,100010.20
2017-09-02T18:20:13.877Z,100009.23
2017-09-02T18:22:40.028Z,100018.22
2017-09-02T18:25:06.310Z,100018.98
2017-09-02T18:27:32.518Z,100027.94
2017-09-02T18:29:58.651Z,100030.21
2017-09-02T18:32:24.801Z,100029.78
2017-09-02T18:34:50.900Z,100032.89
2017-09-02T18:37:17.037Z,100028.57
2017-09-02T18:39:43.167Z,100022.84
2017-09-02T18:42:09.353Z,100027.25
2017-09-02T18:44:35.437Z,100026.79
2017-09-02T18:47:01.624Z,100028.02
2017-09-02T18:49:27.788Z,100027.27
2017-09-02T18:51:54.098Z,100026.56
2017-09-02T18:54:20.264Z,100037.31
2017-09-02T18:56:46.583Z,100028.02
2017-09-02T18:59:12.808Z,100026.14
2017-09-02T19:01:38.978Z,100034.09
2017-09-02T19:04:05.156Z,100030.98
2017-09-02T19:06:31.319Z,100032.41
2017-09-02T19:08:57.503Z,100039.55
2017-09-02T19:11:23.625Z,100044.24
2017-09-02T19:13:49.786Z,100049.42
2017-09-02T19:16:15.928Z,100047.28
2017-09-02T19:18:42.056Z,100055.69
2017-09-02T19:21:08.179Z,100051.64
2017-09-02T19:23:34.404Z,100054.36
2017-09-02T19:26:00.550Z,100050.31
2017-09-02T19:28:26.723Z,100038.70
2017-09-02T19:30:53.044Z,100042.25
2017-09-02T19:33:19.185Z,100037.27
2017-09-02T19:35:45.403Z,100031.78
2017-09-02T19:38:11.647Z,100033.76
2017-09-02T19:40:37.815Z,100044.00
2017-09-02T19:43:03.996Z,100032.20
2017-09-02T19:45:30.202Z,100032.53
2017-09-02T19:47:56.386Z,100038.53
2017-09-02T19:50:22.567Z,100043.39
2017-09-02T19:52:48.815Z,100043.25
2017-09-02T19:55:14.932Z,100050.65
2017-09-02T19:57:41.100Z,100046.59
2017-09-02T20:00:07.280Z,100052.85
2017-09-02T20:02:33.487Z,100057.73
2017-09-02T20:04:59.674Z,100059.66
2017-09-02T20:07:25.848Z,100061.47
2017-09-02T20:09:52.172Z,100063.48
2017-09-02T20:12:18.296Z,100064.30
2017-09-02T20:14:44.474Z,100054.71
2017-09-02T20:17:10.655Z,100058.63
2017-09-02T20:19:36.835Z,100062.60
2017-09-02T20:22:03.062Z,100071.20
2017-09-02T20:24:29.433Z,100068.67
2017-09-02T20:26:55.596Z,100064.66
2017-09-02T20:29:21.840Z,100066.41
2017-09-02T20:31:48.126Z,100069.16
2017-09-02T20:34:14.373Z,100066.80
2017-09-02T20:36:40.558Z,100056.57
2017-09-02T20:39:06.978Z,100055.88
2017-09-02T20:41:33.196Z,100050.34
2017-09-02T20:43:59.447Z,100052.76
2017-09-02T20:46:25.671Z,100053.81
2017-09-02T20:48:51.837Z,100052.21
2017-09-02T20:51:18.058Z,100053.22
2017-09-02T20:53:44.183Z,100057.65
2017-09-02T20:56:10.313Z,100063.73
2017-09-02T20:58:36.497Z,100066.92
2017-09-02T21:01:09.639Z,100067.48
2017-09-02T21:12:36.702Z,100066.22
2017-09-02T21:21:13.568Z,100056.36
2017-09-02T21:23:42.394Z,100052.97
2017-09-02T21:26:08.583Z,100066.38
2017-09-02T21:28:34.819Z,100067.98
2017-09-02T21:31:00.944Z,100059.09
2017-09-02T21:33:27.332Z,100063.18
2017-09-02T21:35:53.477Z,100060.45
2017-09-02T21:38:20.564Z,100054.70
2017-09-02T21:40:46.770Z,100059.73
2017-09-02T21:43:12.888Z,100060.24
2017-09-02T21:45:41.394Z,100059.67
2017-09-02T21:48:07.507Z,100058.44
2017-09-02T21:50:33.656Z,100057.91
2017-09-02T21:53:00.820Z,100057.26
2017-09-02T21:55:27.342Z,100062.05
2017-09-02T21:57:53.483Z,100054.66
2017-09-02T22:00:20.383Z,100055.58
2017-09-02T22:02:46.501Z,100054.80
2017-09-02T22:05:12.670Z,100059.89
2017-09-02T22:07:38.789Z,100053.87
2017-09-02T22:10:04.969Z,100054.30
2017-09-02T22:12:31.093Z,100057.06
2017-09-02T22:14:57.219Z,100056.48
2017-09-02T22:17:23.328Z,100060.58
2017-09-02T22:19:49.471Z,100062.06
2017-09-02T22:22:15.564Z,100068.19
2017-09-02T22:24:41.629Z,100062.75
2017-09-02T22:27:14.792Z,100060.14
2017-09-02T22:29:40.898Z,100063.13
2017-09-02T22:32:07.021Z,100061.72
2017-09-02T22:34:33.231Z,100053.52
2017-09-02T22:36:59.434Z,100053.02
2017-09-02T22:39:25.636Z,100049.65
2017-09-02T22:41:51.784Z,100052.59
2017-09-02T22:44:17.908Z,100044.98
2017-09-02T22:46:44.850Z,100040.61
2017-09-02T22:49:11.008Z,100044.36
2017-09-02T22:51:37.217Z,100040.45
2017-09-02T22:54:03.362Z,100041.30
2017-09-02T22:56:29.548Z,100044.53
2017-09-02T22:58:55.712Z,100046.31
2017-09-02T23:01:21.807Z,100037.02
2017-09-02T23:03:48.008Z,100042.54
2017-09-02T23:06:14.098Z,100044.79
2017-09-02T23:08:40.229Z,100039.55
2017-09-02T23:11:06.366Z,100042.31
2017-09-02T23:13:32.496Z,100038.86
2017-09-02T23:15:58.608Z,100043.80
2017-09-02T23:18:24.786Z,100038.43
2017-09-02T23:20:50.906Z,100040.03
2017-09-02T23:23:17.945Z,100037.22
2017-09-02T23:25:44.100Z,100037.88
2017-09-02T23:28:10.229Z,100034.62
2017-09-02T23:30:36.361Z,100030.59
2017-09-02T23:33:02.511Z,100020.64
2017-09-02T23:35:28.609Z,100020.15
2017-09-02T23:37:54.682Z,100016.68
2017-09-02T23:40:20.830Z,100013.33
2017-09-02T23:42:46.941Z,100015.28
2017-09-02T23:45:13.039Z,100019.23
2017-09-02T23:47:39.173Z,100016.71
2017-09-02T23:50:05.332Z,100019.31
2017-09-02T23:52:31.375Z,100024.32
2017-09-02T23:54:57.560Z,100016.92
2017-09-02T23:57:23.626Z,100013.86
2017-09-02T23:59:49.713Z,100018.80
